Impacts TAF Board INFO
FOR SITUATIONAL AWARENESS. NOT TO BE USED FOR FLIGHT PLANNING PURPOSES.
IDs:

KCLT - Charlotte/Douglas In, NC, US

Issued at 1551 UTC 14 Dec 2017
Updated at 1708 UTC 14 Dec 2017
Potential Impact None Slight Moderate High
Time1652Z 14/18Z 14/19Z 14/20Z 14/21Z 14/22Z 14/23Z 15/00Z 15/01Z 15/02Z 15/03Z 15/04Z 15/05Z 15/06Z>>
Type OBS PRVL PRVL PRVL PRVL PRVL PRVL PRVL PRVL PRVL PRVL PRVL PRVL PRVL
VIS 10 >6 >6 >6 >6 >6 >6 >6 >6 >6 >6 >6 >6 >6
CIG -- -- -- -- -- -- -- -- -- -- -- -- -- --
Cover FEW FEW FEW FEW FEW FEW FEW FEW FEW FEW FEW FEW FEW FEW
FltCat VFR VFR VFR VFR VFR VFR VFR VFR VFR VFR VFR VFR VFR VFR
WX -- -- -- -- -- -- -- -- -- -- -- -- -- --
WDir 300 250 250 250 250 250 250 250 250 250 250 250 250 250
WSpd 5 5 5 5 5 5 5 5 5 5 5 5 5 5
WGst -- -- -- -- -- -- -- -- -- -- -- -- -- --

Raw TAF
KCLT 141551Z 1416/1518 25005KT P6SM FEW250
  FM150800 05004KT P6SM FEW010
  FM151500 32004KT P6SM SCT250


Raw METAR
KCLT 141652Z 30005KT 10SM FEW250 12/M03 A2987 RMK AO2 SLP115 T01221033
KCLT 141552Z COR VRB04KT 10SM FEW250 10/M03 A2988 RMK AO2 SLP119 T01001033
KCLT 141452Z 24005KT 10SM FEW250 07/M04 A2986 RMK AO2 SLP113 T00721039 53030

METAR Board
Radar Display
Forecast Discussion

FOR SITUATIONAL AWARENESS. NOT TO BE USED FOR FLIGHT PLANNING PURPOSES.